sensor_id;sensor_type;location;lat;lon;timestamp;P1;durP1;ratioP1;P2;durP2;ratioP2
68168;SDS011;54981;50.206;15.978;2023-09-18T00:01:03;17.65;;;16.05;;
68168;SDS011;54981;50.206;15.978;2023-09-18T00:03:34;18.58;;;16.98;;
68168;SDS011;54981;50.206;15.978;2023-09-18T00:06:04;18.00;;;16.60;;
68168;SDS011;54981;50.206;15.978;2023-09-18T00:08:35;20.95;;;19.25;;
68168;SDS011;54981;50.206;15.978;2023-09-18T00:11:05;20.40;;;18.70;;
68168;SDS011;54981;50.206;15.978;2023-09-18T00:13:37;21.40;;;19.55;;
68168;SDS011;54981;50.206;15.978;2023-09-18T00:16:08;21.60;;;19.83;;
68168;SDS011;54981;50.206;15.978;2023-09-18T00:18:38;22.63;;;20.80;;
68168;SDS011;54981;50.206;15.978;2023-09-18T00:21:08;22.15;;;20.35;;
68168;SDS011;54981;50.206;15.978;2023-09-18T00:23:40;20.38;;;18.77;;
68168;SDS011;54981;50.206;15.978;2023-09-18T00:26:10;21.08;;;19.38;;
68168;SDS011;54981;50.206;15.978;2023-09-18T00:28:41;19.85;;;18.17;;
68168;SDS011;54981;50.206;15.978;2023-09-18T00:31:11;21.45;;;19.75;;
68168;SDS011;54981;50.206;15.978;2023-09-18T00:33:41;21.92;;;20.10;;
68168;SDS011;54981;50.206;15.978;2023-09-18T00:36:12;21.67;;;19.88;;
68168;SDS011;54981;50.206;15.978;2023-09-18T00:38:42;22.25;;;20.35;;
68168;SDS011;54981;50.206;15.978;2023-09-18T00:41:13;20.30;;;18.60;;
68168;SDS011;54981;50.206;15.978;2023-09-18T00:43:44;21.25;;;19.55;;
68168;SDS011;54981;50.206;15.978;2023-09-18T00:46:14;20.52;;;18.73;;
68168;SDS011;54981;50.206;15.978;2023-09-18T00:48:45;20.20;;;18.60;;
68168;SDS011;54981;50.206;15.978;2023-09-18T00:51:16;19.73;;;18.13;;
68168;SDS011;54981;50.206;15.978;2023-09-18T00:53:47;20.92;;;19.23;;
68168;SDS011;54981;50.206;15.978;2023-09-18T00:56:18;18.65;;;17.15;;
68168;SDS011;54981;50.206;15.978;2023-09-18T00:58:50;19.73;;;18.15;;
68168;SDS011;54981;50.206;15.978;2023-09-18T01:01:21;21.63;;;19.73;;
68168;SDS011;54981;50.206;15.978;2023-09-18T01:03:53;20.20;;;18.45;;
68168;SDS011;54981;50.206;15.978;2023-09-18T01:06:24;17.08;;;15.68;;
68168;SDS011;54981;50.206;15.978;2023-09-18T01:08:57;18.15;;;16.65;;
68168;SDS011;54981;50.206;15.978;2023-09-18T01:12:14;18.23;;;16.73;;
68168;SDS011;54981;50.206;15.978;2023-09-18T01:14:44;18.25;;;16.75;;
68168;SDS011;54981;50.206;15.978;2023-09-18T01:17:22;19.13;;;17.42;;
68168;SDS011;54981;50.206;15.978;2023-09-18T01:19:54;20.30;;;18.70;;
68168;SDS011;54981;50.206;15.978;2023-09-18T01:22:24;20.90;;;19.10;;
68168;SDS011;54981;50.206;15.978;2023-09-18T01:24:55;19.27;;;17.55;;
68168;SDS011;54981;50.206;15.978;2023-09-18T01:27:25;19.33;;;17.73;;
68168;SDS011;54981;50.206;15.978;2023-09-18T01:29:55;18.38;;;16.88;;
68168;SDS011;54981;50.206;15.978;2023-09-18T01:32:26;18.30;;;16.80;;
68168;SDS011;54981;50.206;15.978;2023-09-18T01:35:00;17.35;;;15.90;;
68168;SDS011;54981;50.206;15.978;2023-09-18T01:37:32;17.60;;;16.13;;
68168;SDS011;54981;50.206;15.978;2023-09-18T01:40:05;16.77;;;15.38;;
68168;SDS011;54981;50.206;15.978;2023-09-18T01:42:36;17.90;;;16.40;;
68168;SDS011;54981;50.206;15.978;2023-09-18T01:45:07;18.50;;;17.00;;
68168;SDS011;54981;50.206;15.978;2023-09-18T01:47:38;18.67;;;17.10;;
68168;SDS011;54981;50.206;15.978;2023-09-18T01:50:08;20.83;;;18.95;;
68168;SDS011;54981;50.206;15.978;2023-09-18T01:52:39;20.83;;;19.02;;
68168;SDS011;54981;50.206;15.978;2023-09-18T01:55:10;20.83;;;19.08;;
68168;SDS011;54981;50.206;15.978;2023-09-18T01:57:40;17.70;;;16.30;;
68168;SDS011;54981;50.206;15.978;2023-09-18T02:00:12;18.42;;;16.70;;
68168;SDS011;54981;50.206;15.978;2023-09-18T02:02:43;19.23;;;17.52;;
68168;SDS011;54981;50.206;15.978;2023-09-18T02:05:14;20.25;;;18.65;;
68168;SDS011;54981;50.206;15.978;2023-09-18T02:07:44;20.92;;;19.30;;
68168;SDS011;54981;50.206;15.978;2023-09-18T02:10:15;21.58;;;19.77;;
68168;SDS011;54981;50.206;15.978;2023-09-18T02:12:45;22.45;;;20.55;;
68168;SDS011;54981;50.206;15.978;2023-09-18T02:15:15;22.23;;;20.33;;
68168;SDS011;54981;50.206;15.978;2023-09-18T02:17:46;22.80;;;20.67;;
68168;SDS011;54981;50.206;15.978;2023-09-18T02:20:17;21.30;;;19.40;;
68168;SDS011;54981;50.206;15.978;2023-09-18T02:22:48;20.73;;;18.70;;
68168;SDS011;54981;50.206;15.978;2023-09-18T02:25:18;20.65;;;18.85;;
68168;SDS011;54981;50.206;15.978;2023-09-18T02:27:48;24.63;;;22.63;;
68168;SDS011;54981;50.206;15.978;2023-09-18T02:30:19;24.73;;;22.45;;
68168;SDS011;54981;50.206;15.978;2023-09-18T02:32:50;25.38;;;23.08;;
68168;SDS011;54981;50.206;15.978;2023-09-18T02:35:20;28.25;;;25.92;;
68168;SDS011;54981;50.206;15.978;2023-09-18T02:37:51;29.48;;;26.95;;
68168;SDS011;54981;50.206;15.978;2023-09-18T02:40:22;30.70;;;28.10;;
68168;SDS011;54981;50.206;15.978;2023-09-18T02:42:52;31.65;;;29.00;;
68168;SDS011;54981;50.206;15.978;2023-09-18T02:45:23;33.90;;;31.02;;
68168;SDS011;54981;50.206;15.978;2023-09-18T02:47:53;32.55;;;29.75;;
68168;SDS011;54981;50.206;15.978;2023-09-18T02:50:23;34.22;;;31.33;;
68168;SDS011;54981;50.206;15.978;2023-09-18T02:52:54;32.42;;;29.48;;
68168;SDS011;54981;50.206;15.978;2023-09-18T02:55:24;33.65;;;30.75;;
68168;SDS011;54981;50.206;15.978;2023-09-18T02:57:54;32.05;;;29.27;;
68168;SDS011;54981;50.206;15.978;2023-09-18T03:00:25;33.85;;;30.98;;
68168;SDS011;54981;50.206;15.978;2023-09-18T03:02:55;31.67;;;29.05;;
68168;SDS011;54981;50.206;15.978;2023-09-18T03:05:25;32.15;;;29.30;;
68168;SDS011;54981;50.206;15.978;2023-09-18T03:07:56;30.50;;;27.90;;
68168;SDS011;54981;50.206;15.978;2023-09-18T03:10:27;29.83;;;27.15;;
68168;SDS011;54981;50.206;15.978;2023-09-18T03:12:57;31.33;;;28.40;;
68168;SDS011;54981;50.206;15.978;2023-09-18T03:15:27;28.65;;;26.23;;
68168;SDS011;54981;50.206;15.978;2023-09-18T03:17:59;29.30;;;26.80;;
68168;SDS011;54981;50.206;15.978;2023-09-18T03:20:30;30.33;;;27.35;;
68168;SDS011;54981;50.206;15.978;2023-09-18T03:23:01;30.80;;;28.08;;
68168;SDS011;54981;50.206;15.978;2023-09-18T03:25:32;27.88;;;25.45;;
68168;SDS011;54981;50.206;15.978;2023-09-18T03:28:03;28.60;;;26.17;;
68168;SDS011;54981;50.206;15.978;2023-09-18T03:30:33;28.92;;;26.33;;
68168;SDS011;54981;50.206;15.978;2023-09-18T03:33:04;29.23;;;26.80;;
68168;SDS011;54981;50.206;15.978;2023-09-18T03:35:44;31.23;;;28.63;;
68168;SDS011;54981;50.206;15.978;2023-09-18T03:38:15;29.13;;;26.73;;
68168;SDS011;54981;50.206;15.978;2023-09-18T03:40:46;29.90;;;27.23;;
68168;SDS011;54981;50.206;15.978;2023-09-18T03:43:16;30.75;;;27.85;;
68168;SDS011;54981;50.206;15.978;2023-09-18T03:45:47;27.85;;;25.48;;
68168;SDS011;54981;50.206;15.978;2023-09-18T03:48:18;29.05;;;26.45;;
68168;SDS011;54981;50.206;15.978;2023-09-18T03:50:50;28.48;;;26.02;;
68168;SDS011;54981;50.206;15.978;2023-09-18T03:53:20;28.40;;;25.92;;
68168;SDS011;54981;50.206;15.978;2023-09-18T03:55:51;29.27;;;26.70;;
68168;SDS011;54981;50.206;15.978;2023-09-18T03:58:21;27.55;;;25.33;;
68168;SDS011;54981;50.206;15.978;2023-09-18T04:00:52;29.50;;;26.80;;
68168;SDS011;54981;50.206;15.978;2023-09-18T04:03:22;29.15;;;26.75;;
68168;SDS011;54981;50.206;15.978;2023-09-18T04:05:52;31.20;;;28.50;;
68168;SDS011;54981;50.206;15.978;2023-09-18T04:08:23;28.83;;;26.33;;
68168;SDS011;54981;50.206;15.978;2023-09-18T04:10:54;28.50;;;26.08;;
68168;SDS011;54981;50.206;15.978;2023-09-18T04:13:25;29.33;;;26.67;;
68168;SDS011;54981;50.206;15.978;2023-09-18T04:15:56;29.00;;;26.50;;
68168;SDS011;54981;50.206;15.978;2023-09-18T04:18:27;29.30;;;26.52;;
68168;SDS011;54981;50.206;15.978;2023-09-18T04:20:58;26.20;;;23.95;;
68168;SDS011;54981;50.206;15.978;2023-09-18T04:23:28;28.55;;;26.05;;
68168;SDS011;54981;50.206;15.978;2023-09-18T04:25:58;27.23;;;24.90;;
68168;SDS011;54981;50.206;15.978;2023-09-18T04:28:29;27.70;;;25.30;;
68168;SDS011;54981;50.206;15.978;2023-09-18T04:31:00;28.58;;;26.08;;
68168;SDS011;54981;50.206;15.978;2023-09-18T04:33:30;27.05;;;24.77;;
68168;SDS011;54981;50.206;15.978;2023-09-18T04:36:00;29.70;;;27.10;;
68168;SDS011;54981;50.206;15.978;2023-09-18T04:38:31;28.58;;;26.08;;
68168;SDS011;54981;50.206;15.978;2023-09-18T04:41:01;28.65;;;26.05;;
68168;SDS011;54981;50.206;15.978;2023-09-18T04:43:32;29.80;;;26.83;;
68168;SDS011;54981;50.206;15.978;2023-09-18T04:46:04;30.67;;;27.98;;
68168;SDS011;54981;50.206;15.978;2023-09-18T04:48:35;27.98;;;25.58;;
68168;SDS011;54981;50.206;15.978;2023-09-18T04:51:05;28.63;;;26.10;;
68168;SDS011;54981;50.206;15.978;2023-09-18T04:53:35;27.63;;;25.17;;
68168;SDS011;54981;50.206;15.978;2023-09-18T04:56:06;29.55;;;26.85;;
68168;SDS011;54981;50.206;15.978;2023-09-18T04:58:37;27.85;;;25.45;;
68168;SDS011;54981;50.206;15.978;2023-09-18T05:01:08;27.58;;;25.17;;
68168;SDS011;54981;50.206;15.978;2023-09-18T05:03:41;29.70;;;26.95;;
68168;SDS011;54981;50.206;15.978;2023-09-18T05:06:11;26.63;;;24.17;;
68168;SDS011;54981;50.206;15.978;2023-09-18T05:08:42;26.75;;;24.50;;
68168;SDS011;54981;50.206;15.978;2023-09-18T05:11:13;27.52;;;25.13;;
68168;SDS011;54981;50.206;15.978;2023-09-18T05:13:44;26.90;;;24.52;;
68168;SDS011;54981;50.206;15.978;2023-09-18T05:16:14;27.58;;;25.05;;
68168;SDS011;54981;50.206;15.978;2023-09-18T05:18:44;26.77;;;24.27;;
68168;SDS011;54981;50.206;15.978;2023-09-18T05:21:15;26.95;;;24.45;;
68168;SDS011;54981;50.206;15.978;2023-09-18T05:23:45;27.05;;;24.50;;
68168;SDS011;54981;50.206;15.978;2023-09-18T05:26:15;27.67;;;25.27;;
68168;SDS011;54981;50.206;15.978;2023-09-18T05:28:46;26.25;;;23.95;;
68168;SDS011;54981;50.206;15.978;2023-09-18T05:31:17;26.42;;;24.15;;
68168;SDS011;54981;50.206;15.978;2023-09-18T05:33:48;26.98;;;24.65;;
68168;SDS011;54981;50.206;15.978;2023-09-18T05:36:19;25.15;;;22.65;;
68168;SDS011;54981;50.206;15.978;2023-09-18T05:38:50;27.52;;;25.13;;
68168;SDS011;54981;50.206;15.978;2023-09-18T05:41:20;25.77;;;23.58;;
68168;SDS011;54981;50.206;15.978;2023-09-18T05:43:51;26.80;;;24.38;;
68168;SDS011;54981;50.206;15.978;2023-09-18T05:46:22;25.92;;;23.63;;
68168;SDS011;54981;50.206;15.978;2023-09-18T05:48:52;24.85;;;22.75;;
68168;SDS011;54981;50.206;15.978;2023-09-18T05:51:26;25.50;;;23.20;;
68168;SDS011;54981;50.206;15.978;2023-09-18T05:53:57;24.80;;;22.50;;
68168;SDS011;54981;50.206;15.978;2023-09-18T05:56:27;25.23;;;22.88;;
68168;SDS011;54981;50.206;15.978;2023-09-18T05:58:58;26.73;;;24.33;;
68168;SDS011;54981;50.206;15.978;2023-09-18T06:01:28;23.60;;;21.50;;
68168;SDS011;54981;50.206;15.978;2023-09-18T06:03:58;24.50;;;22.33;;
68168;SDS011;54981;50.206;15.978;2023-09-18T06:06:29;26.50;;;24.20;;
68168;SDS011;54981;50.206;15.978;2023-09-18T06:08:59;24.70;;;22.30;;
68168;SDS011;54981;50.206;15.978;2023-09-18T06:11:29;25.45;;;22.85;;
68168;SDS011;54981;50.206;15.978;2023-09-18T06:14:00;25.75;;;23.33;;
68168;SDS011;54981;50.206;15.978;2023-09-18T06:16:30;24.77;;;22.35;;
68168;SDS011;54981;50.206;15.978;2023-09-18T06:19:01;26.70;;;24.17;;
68168;SDS011;54981;50.206;15.978;2023-09-18T06:21:31;26.27;;;23.80;;
68168;SDS011;54981;50.206;15.978;2023-09-18T06:24:02;25.77;;;23.48;;
68168;SDS011;54981;50.206;15.978;2023-09-18T06:26:32;25.50;;;23.17;;
68168;SDS011;54981;50.206;15.978;2023-09-18T06:29:02;25.65;;;23.35;;
68168;SDS011;54981;50.206;15.978;2023-09-18T06:31:34;24.67;;;22.42;;
68168;SDS011;54981;50.206;15.978;2023-09-18T06:34:05;25.92;;;23.60;;
68168;SDS011;54981;50.206;15.978;2023-09-18T06:36:36;24.00;;;21.70;;
68168;SDS011;54981;50.206;15.978;2023-09-18T06:39:07;25.95;;;23.48;;
68168;SDS011;54981;50.206;15.978;2023-09-18T06:41:37;23.95;;;21.85;;
68168;SDS011;54981;50.206;15.978;2023-09-18T06:44:08;24.42;;;22.13;;
68168;SDS011;54981;50.206;15.978;2023-09-18T06:46:38;24.35;;;22.25;;
68168;SDS011;54981;50.206;15.978;2023-09-18T06:49:09;23.65;;;21.45;;
68168;SDS011;54981;50.206;15.978;2023-09-18T06:51:40;23.70;;;21.50;;
68168;SDS011;54981;50.206;15.978;2023-09-18T06:54:10;22.73;;;20.60;;
68168;SDS011;54981;50.206;15.978;2023-09-18T06:56:40;23.30;;;21.10;;
68168;SDS011;54981;50.206;15.978;2023-09-18T06:59:11;23.38;;;21.30;;
68168;SDS011;54981;50.206;15.978;2023-09-18T07:01:42;24.00;;;21.52;;
68168;SDS011;54981;50.206;15.978;2023-09-18T07:04:12;24.52;;;22.13;;
68168;SDS011;54981;50.206;15.978;2023-09-18T07:06:42;22.75;;;20.60;;
68168;SDS011;54981;50.206;15.978;2023-09-18T07:09:13;24.67;;;21.85;;
68168;SDS011;54981;50.206;15.978;2023-09-18T07:11:43;23.55;;;21.35;;
68168;SDS011;54981;50.206;15.978;2023-09-18T07:14:14;24.73;;;22.42;;
68168;SDS011;54981;50.206;15.978;2023-09-18T07:16:44;23.40;;;21.23;;
68168;SDS011;54981;50.206;15.978;2023-09-18T07:19:15;22.67;;;20.55;;
68168;SDS011;54981;50.206;15.978;2023-09-18T07:21:46;25.38;;;22.98;;
68168;SDS011;54981;50.206;15.978;2023-09-18T07:24:17;21.95;;;19.92;;
68168;SDS011;54981;50.206;15.978;2023-09-18T07:26:48;22.20;;;20.13;;
68168;SDS011;54981;50.206;15.978;2023-09-18T07:29:18;21.73;;;19.73;;
68168;SDS011;54981;50.206;15.978;2023-09-18T07:31:49;22.48;;;20.45;;
68168;SDS011;54981;50.206;15.978;2023-09-18T07:34:20;22.60;;;20.58;;
68168;SDS011;54981;50.206;15.978;2023-09-18T07:36:50;22.95;;;20.73;;
68168;SDS011;54981;50.206;15.978;2023-09-18T07:39:24;21.48;;;19.40;;
68168;SDS011;54981;50.206;15.978;2023-09-18T07:41:54;21.83;;;19.80;;
68168;SDS011;54981;50.206;15.978;2023-09-18T07:44:25;20.40;;;18.42;;
68168;SDS011;54981;50.206;15.978;2023-09-18T07:46:56;21.67;;;19.48;;
68168;SDS011;54981;50.206;15.978;2023-09-18T07:49:26;20.90;;;19.00;;
68168;SDS011;54981;50.206;15.978;2023-09-18T07:51:56;21.52;;;19.38;;
68168;SDS011;54981;50.206;15.978;2023-09-18T07:54:27;21.08;;;19.15;;
68168;SDS011;54981;50.206;15.978;2023-09-18T07:56:57;20.00;;;17.90;;
68168;SDS011;54981;50.206;15.978;2023-09-18T07:59:29;20.35;;;18.33;;
68168;SDS011;54981;50.206;15.978;2023-09-18T08:02:00;19.13;;;17.23;;
68168;SDS011;54981;50.206;15.978;2023-09-18T08:04:31;19.10;;;17.23;;
68168;SDS011;54981;50.206;15.978;2023-09-18T08:07:02;18.75;;;16.85;;
68168;SDS011;54981;50.206;15.978;2023-09-18T08:09:32;20.02;;;18.20;;
68168;SDS011;54981;50.206;15.978;2023-09-18T08:12:06;19.02;;;16.73;;
68168;SDS011;54981;50.206;15.978;2023-09-18T08:14:38;19.45;;;17.52;;
68168;SDS011;54981;50.206;15.978;2023-09-18T08:17:09;17.58;;;15.77;;
68168;SDS011;54981;50.206;15.978;2023-09-18T08:19:39;17.88;;;16.27;;
68168;SDS011;54981;50.206;15.978;2023-09-18T08:22:10;17.98;;;16.17;;
68168;SDS011;54981;50.206;15.978;2023-09-18T08:24:45;18.05;;;16.25;;
68168;SDS011;54981;50.206;15.978;2023-09-18T08:27:16;17.98;;;16.08;;
68168;SDS011;54981;50.206;15.978;2023-09-18T08:29:47;17.10;;;15.32;;
68168;SDS011;54981;50.206;15.978;2023-09-18T08:32:17;17.80;;;16.10;;
68168;SDS011;54981;50.206;15.978;2023-09-18T08:34:47;17.17;;;15.55;;
68168;SDS011;54981;50.206;15.978;2023-09-18T08:37:18;17.67;;;15.93;;
68168;SDS011;54981;50.206;15.978;2023-09-18T08:39:48;17.80;;;15.35;;
68168;SDS011;54981;50.206;15.978;2023-09-18T08:42:18;17.42;;;15.48;;
68168;SDS011;54981;50.206;15.978;2023-09-18T08:44:51;18.63;;;15.35;;
68168;SDS011;54981;50.206;15.978;2023-09-18T08:47:23;17.20;;;14.20;;
68168;SDS011;54981;50.206;15.978;2023-09-18T08:49:53;16.40;;;14.75;;
68168;SDS011;54981;50.206;15.978;2023-09-18T08:52:25;14.77;;;13.18;;
68168;SDS011;54981;50.206;15.978;2023-09-18T08:54:56;14.85;;;13.38;;
68168;SDS011;54981;50.206;15.978;2023-09-18T08:57:27;15.95;;;13.38;;
68168;SDS011;54981;50.206;15.978;2023-09-18T09:00:00;14.00;;;12.20;;
68168;SDS011;54981;50.206;15.978;2023-09-18T09:02:37;14.38;;;12.95;;
68168;SDS011;54981;50.206;15.978;2023-09-18T09:05:08;13.75;;;12.30;;
68168;SDS011;54981;50.206;15.978;2023-09-18T09:07:38;15.23;;;13.63;;
68168;SDS011;54981;50.206;15.978;2023-09-18T09:10:09;14.10;;;12.55;;
68168;SDS011;54981;50.206;15.978;2023-09-18T09:12:46;13.98;;;12.57;;
68168;SDS011;54981;50.206;15.978;2023-09-18T09:15:17;14.95;;;13.55;;
68168;SDS011;54981;50.206;15.978;2023-09-18T09:17:47;14.57;;;12.90;;
68168;SDS011;54981;50.206;15.978;2023-09-18T09:20:19;14.75;;;13.25;;
68168;SDS011;54981;50.206;15.978;2023-09-18T09:22:49;13.68;;;12.38;;
68168;SDS011;54981;50.206;15.978;2023-09-18T09:27:50;16.67;;;11.17;;
68168;SDS011;54981;50.206;15.978;2023-09-18T09:30:21;13.43;;;12.02;;
68168;SDS011;54981;50.206;15.978;2023-09-18T09:32:54;13.63;;;12.15;;
68168;SDS011;54981;50.206;15.978;2023-09-18T09:35:27;14.47;;;11.97;;
68168;SDS011;54981;50.206;15.978;2023-09-18T09:38:17;13.27;;;11.47;;
68168;SDS011;54981;50.206;15.978;2023-09-18T09:40:50;14.43;;;11.07;;
68168;SDS011;54981;50.206;15.978;2023-09-18T09:43:21;12.35;;;11.00;;
68168;SDS011;54981;50.206;15.978;2023-09-18T09:45:56;13.18;;;11.40;;
68168;SDS011;54981;50.206;15.978;2023-09-18T09:48:28;17.52;;;11.00;;
68168;SDS011;54981;50.206;15.978;2023-09-18T09:51:03;13.38;;;11.00;;
68168;SDS011;54981;50.206;15.978;2023-09-18T09:53:43;12.43;;;10.98;;
68168;SDS011;54981;50.206;15.978;2023-09-18T09:59:10;11.63;;;10.35;;
68168;SDS011;54981;50.206;15.978;2023-09-18T10:01:42;11.15;;;10.00;;
68168;SDS011;54981;50.206;15.978;2023-09-18T10:04:17;12.40;;;10.15;;
68168;SDS011;54981;50.206;15.978;2023-09-18T10:06:55;13.63;;;10.23;;
68168;SDS011;54981;50.206;15.978;2023-09-18T10:09:28;10.95;;;9.50;;
68168;SDS011;54981;50.206;15.978;2023-09-18T10:11:59;12.25;;;9.90;;
68168;SDS011;54981;50.206;15.978;2023-09-18T10:14:34;15.85;;;9.98;;
68168;SDS011;54981;50.206;15.978;2023-09-18T10:17:16;12.17;;;10.00;;
68168;SDS011;54981;50.206;15.978;2023-09-18T10:22:49;11.40;;;8.70;;
68168;SDS011;54981;50.206;15.978;2023-09-18T10:25:24;10.32;;;7.85;;
68168;SDS011;54981;50.206;15.978;2023-09-18T10:27:58;14.68;;;7.45;;
68168;SDS011;54981;50.206;15.978;2023-09-18T10:33:04;10.00;;;7.85;;
68168;SDS011;54981;50.206;15.978;2023-09-18T10:38:07;12.23;;;8.13;;
68168;SDS011;54981;50.206;15.978;2023-09-18T10:40:39;11.40;;;8.23;;
68168;SDS011;54981;50.206;15.978;2023-09-18T10:43:11;11.02;;;7.32;;
68168;SDS011;54981;50.206;15.978;2023-09-18T10:45:41;12.90;;;7.80;;
68168;SDS011;54981;50.206;15.978;2023-09-18T10:48:14;9.82;;;7.35;;
68168;SDS011;54981;50.206;15.978;2023-09-18T10:50:46;14.82;;;8.40;;
68168;SDS011;54981;50.206;15.978;2023-09-18T10:53:17;14.55;;;8.63;;
68168;SDS011;54981;50.206;15.978;2023-09-18T10:55:49;9.63;;;7.65;;
68168;SDS011;54981;50.206;15.978;2023-09-18T10:58:23;11.48;;;7.35;;
68168;SDS011;54981;50.206;15.978;2023-09-18T11:00:55;10.27;;;7.88;;
68168;SDS011;54981;50.206;15.978;2023-09-18T11:03:27;13.98;;;7.70;;
68168;SDS011;54981;50.206;15.978;2023-09-18T11:06:08;12.13;;;7.45;;
68168;SDS011;54981;50.206;15.978;2023-09-18T11:08:45;12.63;;;7.18;;
68168;SDS011;54981;50.206;15.978;2023-09-18T11:11:17;14.90;;;7.50;;
68168;SDS011;54981;50.206;15.978;2023-09-18T11:13:56;8.85;;;7.82;;
68168;SDS011;54981;50.206;15.978;2023-09-18T11:24:05;13.95;;;7.68;;
68168;SDS011;54981;50.206;15.978;2023-09-18T11:26:41;10.60;;;7.65;;
68168;SDS011;54981;50.206;15.978;2023-09-18T11:29:16;14.82;;;7.55;;
68168;SDS011;54981;50.206;15.978;2023-09-18T11:31:52;15.38;;;8.65;;
68168;SDS011;54981;50.206;15.978;2023-09-18T11:34:28;13.32;;;7.60;;
68168;SDS011;54981;50.206;15.978;2023-09-18T11:37:20;8.95;;;7.00;;
68168;SDS011;54981;50.206;15.978;2023-09-18T11:39:51;10.90;;;7.60;;
68168;SDS011;54981;50.206;15.978;2023-09-18T11:42:22;10.57;;;7.18;;
68168;SDS011;54981;50.206;15.978;2023-09-18T11:44:52;9.32;;;6.97;;
68168;SDS011;54981;50.206;15.978;2023-09-18T11:47:23;12.07;;;7.30;;
68168;SDS011;54981;50.206;15.978;2023-09-18T11:49:59;9.82;;;7.35;;
68168;SDS011;54981;50.206;15.978;2023-09-18T11:52:30;9.48;;;6.78;;
68168;SDS011;54981;50.206;15.978;2023-09-18T11:55:01;10.13;;;7.50;;
68168;SDS011;54981;50.206;15.978;2023-09-18T11:57:36;9.75;;;7.75;;
68168;SDS011;54981;50.206;15.978;2023-09-18T12:00:17;12.55;;;7.43;;
68168;SDS011;54981;50.206;15.978;2023-09-18T12:02:52;12.70;;;6.97;;
68168;SDS011;54981;50.206;15.978;2023-09-18T12:05:22;11.75;;;7.82;;
68168;SDS011;54981;50.206;15.978;2023-09-18T12:07:56;9.80;;;7.07;;
68168;SDS011;54981;50.206;15.978;2023-09-18T12:10:27;15.52;;;7.97;;
68168;SDS011;54981;50.206;15.978;2023-09-18T12:12:58;10.10;;;6.82;;
68168;SDS011;54981;50.206;15.978;2023-09-18T12:15:28;12.98;;;7.72;;
68168;SDS011;54981;50.206;15.978;2023-09-18T12:18:06;10.60;;;6.85;;
68168;SDS011;54981;50.206;15.978;2023-09-18T12:20:44;9.45;;;7.00;;
68168;SDS011;54981;50.206;15.978;2023-09-18T12:23:15;9.80;;;7.03;;
68168;SDS011;54981;50.206;15.978;2023-09-18T12:25:47;10.27;;;6.78;;
68168;SDS011;54981;50.206;15.978;2023-09-18T12:28:19;12.45;;;6.72;;
68168;SDS011;54981;50.206;15.978;2023-09-18T12:30:50;11.52;;;7.13;;
68168;SDS011;54981;50.206;15.978;2023-09-18T12:33:22;13.90;;;7.68;;
68168;SDS011;54981;50.206;15.978;2023-09-18T12:35:53;10.18;;;6.63;;
68168;SDS011;54981;50.206;15.978;2023-09-18T12:38:24;10.60;;;6.45;;
68168;SDS011;54981;50.206;15.978;2023-09-18T12:40:57;12.40;;;6.40;;
68168;SDS011;54981;50.206;15.978;2023-09-18T12:43:36;10.73;;;6.72;;
68168;SDS011;54981;50.206;15.978;2023-09-18T12:46:13;11.73;;;6.55;;
68168;SDS011;54981;50.206;15.978;2023-09-18T12:48:44;9.98;;;6.05;;
68168;SDS011;54981;50.206;15.978;2023-09-18T12:51:17;10.23;;;6.22;;
68168;SDS011;54981;50.206;15.978;2023-09-18T12:53:59;12.88;;;6.88;;
68168;SDS011;54981;50.206;15.978;2023-09-18T12:56:40;9.65;;;6.75;;
68168;SDS011;54981;50.206;15.978;2023-09-18T12:59:11;11.25;;;6.65;;
68168;SDS011;54981;50.206;15.978;2023-09-18T13:01:45;10.93;;;5.78;;
68168;SDS011;54981;50.206;15.978;2023-09-18T13:04:18;8.20;;;6.38;;
68168;SDS011;54981;50.206;15.978;2023-09-18T13:07:02;12.93;;;6.75;;
68168;SDS011;54981;50.206;15.978;2023-09-18T13:09:34;12.35;;;6.47;;
68168;SDS011;54981;50.206;15.978;2023-09-18T13:12:05;14.68;;;6.50;;
68168;SDS011;54981;50.206;15.978;2023-09-18T13:17:42;9.15;;;6.80;;
68168;SDS011;54981;50.206;15.978;2023-09-18T13:20:15;8.70;;;6.10;;
68168;SDS011;54981;50.206;15.978;2023-09-18T13:22:50;11.45;;;6.93;;
68168;SDS011;54981;50.206;15.978;2023-09-18T13:25:25;9.88;;;6.72;;
68168;SDS011;54981;50.206;15.978;2023-09-18T13:28:00;8.95;;;6.85;;
68168;SDS011;54981;50.206;15.978;2023-09-18T13:30:32;9.67;;;6.53;;
68168;SDS011;54981;50.206;15.978;2023-09-18T13:35:42;10.00;;;6.97;;
68168;SDS011;54981;50.206;15.978;2023-09-18T13:38:14;10.23;;;6.72;;
68168;SDS011;54981;50.206;15.978;2023-09-18T13:40:45;13.43;;;6.60;;
68168;SDS011;54981;50.206;15.978;2023-09-18T13:43:16;11.68;;;6.53;;
68168;SDS011;54981;50.206;15.978;2023-09-18T13:45:49;13.10;;;6.93;;
68168;SDS011;54981;50.206;15.978;2023-09-18T13:48:24;12.43;;;7.00;;
68168;SDS011;54981;50.206;15.978;2023-09-18T13:50:55;10.45;;;7.72;;
68168;SDS011;54981;50.206;15.978;2023-09-18T13:53:25;10.38;;;7.00;;
68168;SDS011;54981;50.206;15.978;2023-09-18T13:55:56;13.57;;;7.18;;
68168;SDS011;54981;50.206;15.978;2023-09-18T13:58:26;10.43;;;7.32;;
68168;SDS011;54981;50.206;15.978;2023-09-18T14:00:57;10.07;;;6.80;;
68168;SDS011;54981;50.206;15.978;2023-09-18T14:03:28;12.43;;;6.90;;
68168;SDS011;54981;50.206;15.978;2023-09-18T14:05:58;9.63;;;6.97;;
68168;SDS011;54981;50.206;15.978;2023-09-18T14:08:28;11.13;;;7.38;;
68168;SDS011;54981;50.206;15.978;2023-09-18T14:10:59;9.55;;;7.15;;
68168;SDS011;54981;50.206;15.978;2023-09-18T14:13:29;10.30;;;6.75;;
68168;SDS011;54981;50.206;15.978;2023-09-18T14:16:00;10.38;;;7.78;;
68168;SDS011;54981;50.206;15.978;2023-09-18T14:18:33;13.73;;;7.43;;
68168;SDS011;54981;50.206;15.978;2023-09-18T14:21:07;12.63;;;7.90;;
68168;SDS011;54981;50.206;15.978;2023-09-18T14:23:37;11.65;;;7.90;;
68168;SDS011;54981;50.206;15.978;2023-09-18T14:26:07;9.48;;;7.20;;
68168;SDS011;54981;50.206;15.978;2023-09-18T14:28:38;11.43;;;7.97;;
68168;SDS011;54981;50.206;15.978;2023-09-18T14:31:08;9.07;;;7.88;;
68168;SDS011;54981;50.206;15.978;2023-09-18T14:33:38;13.60;;;8.43;;
68168;SDS011;54981;50.206;15.978;2023-09-18T14:36:10;11.88;;;8.63;;
68168;SDS011;54981;50.206;15.978;2023-09-18T14:38:40;12.93;;;8.43;;
68168;SDS011;54981;50.206;15.978;2023-09-18T14:41:11;14.07;;;8.25;;
68168;SDS011;54981;50.206;15.978;2023-09-18T14:43:41;10.95;;;7.90;;
68168;SDS011;54981;50.206;15.978;2023-09-18T14:46:12;10.73;;;8.43;;
68168;SDS011;54981;50.206;15.978;2023-09-18T14:48:43;10.05;;;8.32;;
68168;SDS011;54981;50.206;15.978;2023-09-18T14:51:13;12.63;;;8.82;;
68168;SDS011;54981;50.206;15.978;2023-09-18T14:53:44;13.18;;;8.15;;
68168;SDS011;54981;50.206;15.978;2023-09-18T14:56:14;12.02;;;8.60;;
68168;SDS011;54981;50.206;15.978;2023-09-18T14:58:44;12.52;;;8.68;;
68168;SDS011;54981;50.206;15.978;2023-09-18T15:01:20;13.38;;;9.57;;
68168;SDS011;54981;50.206;15.978;2023-09-18T15:03:51;19.98;;;9.23;;
68168;SDS011;54981;50.206;15.978;2023-09-18T15:06:22;11.45;;;8.88;;